Time;durP1;ratioP1;P1;durP2;ratioP2;P2;SDS_P1;SDS_P2;PMS_P1;PMS_P2;Temp;Humidity;BMP_temperature;BMP_pressure;BME280_temperature;BME280_humidity;BME280_pressure;Samples;Min_cycle;Max_cycle;Signal;HPM_P1;HPM_P2
2022/10/16 00:00:42;;;;;;;10.23;2.70;;;;;;;;;;4969515;28;20038;-71
2022/10/16 00:03:08;;;;;;;7.13;2.42;;;;;;;;;;4967630;28;20134;-72
2022/10/16 00:05:38;;;;;;;7.07;2.55;;;;;;;;;;4973618;28;20069;-72
2022/10/16 00:08:04;;;;;;;9.90;3.40;;;;;;;;;;4969397;28;20061;-72
2022/10/16 00:10:30;;;;;;;7.88;2.30;;;;;;;;;;4965071;28;20032;-72
2022/10/16 00:12:56;;;;;;;5.30;2.10;;;;;;;;;;4966704;28;20038;-71
2022/10/16 00:15:22;;;;;;;5.72;2.40;;;;;;;;;;4972686;28;20509;-72
2022/10/16 00:17:48;;;;;;;11.75;2.90;;;;;;;;;;4969707;28;20118;-72
2022/10/16 00:20:14;;;;;;;8.52;2.85;;;;;;;;;;4967770;28;20504;-72
2022/10/16 00:22:40;;;;;;;8.30;2.55;;;;;;;;;;4967802;28;20145;-72
2022/10/16 00:25:07;;;;;;;6.55;2.10;;;;;;;;;;4968754;28;20035;-72
2022/10/16 00:27:33;;;;;;;8.45;2.53;;;;;;;;;;4965174;28;20035;-72
2022/10/16 00:29:59;;;;;;;6.60;2.97;;;;;;;;;;4965518;28;20476;-72
2022/10/16 00:32:25;;;;;;;6.82;2.50;;;;;;;;;;4966499;28;20041;-71
2022/10/16 00:34:53;;;;;;;8.93;3.47;;;;;;;;;;4967613;28;20026;-71
2022/10/16 00:37:19;;;;;;;9.15;3.00;;;;;;;;;;4966119;28;20027;-69
2022/10/16 00:39:45;;;;;;;6.28;2.40;;;;;;;;;;4967235;28;20092;-71
2022/10/16 00:42:15;;;;;;;6.70;3.28;;;;;;;;;;4966919;28;20050;-71
2022/10/16 00:44:43;;;;;;;8.40;2.63;;;;;;;;;;4963199;28;20062;-71
2022/10/16 00:47:12;;;;;;;10.55;2.67;;;;;;;;;;4966466;28;20034;-71
2022/10/16 00:49:38;;;;;;;7.57;2.60;;;;;;;;;;4966059;28;20051;-72
2022/10/16 00:52:04;;;;;;;10.38;3.22;;;;;;;;;;4965989;28;20035;-72
2022/10/16 00:54:31;;;;;;;7.75;3.65;;;;;;;;;;4966505;28;20097;-72
2022/10/16 00:56:59;;;;;;;5.53;2.60;;;;;;;;;;4967363;28;20030;-72
2022/10/16 00:59:27;;;;;;;6.18;2.90;;;;;;;;;;4967066;28;20030;-72
2022/10/16 01:01:54;;;;;;;11.75;2.97;;;;;;;;;;4966191;28;20035;-71
2022/10/16 01:04:20;;;;;;;7.28;2.92;;;;;;;;;;4967304;28;20038;-72
2022/10/16 01:06:46;;;;;;;9.43;3.40;;;;;;;;;;4977013;28;20523;-72
2022/10/16 01:09:18;;;;;;;5.93;2.63;;;;;;;;;;4969223;28;20173;-72
2022/10/16 01:12:04;;;;;;;6.65;2.65;;;;;;;;;;4967660;28;20065;-71
2022/10/16 01:14:39;;;;;;;6.60;2.92;;;;;;;;;;4965072;28;20085;-71
2022/10/16 01:17:09;;;;;;;8.15;3.40;;;;;;;;;;4966681;28;20034;-72
2022/10/16 01:19:35;;;;;;;7.03;2.90;;;;;;;;;;4965049;28;20038;-72
2022/10/16 01:22:01;;;;;;;9.15;2.83;;;;;;;;;;4965252;28;20123;-72
2022/10/16 01:24:41;;;;;;;8.40;3.35;;;;;;;;;;4980700;28;20497;-72
2022/10/16 01:27:11;;;;;;;9.52;3.38;;;;;;;;;;4964514;28;20089;-72
2022/10/16 01:29:43;;;;;;;8.38;3.80;;;;;;;;;;4979645;28;20027;-72
2022/10/16 01:32:22;;;;;;;12.38;5.03;;;;;;;;;;4961984;28;20503;-72
2022/10/16 01:34:50;;;;;;;6.28;3.40;;;;;;;;;;4963982;28;20114;-73
2022/10/16 01:37:19;;;;;;;9.80;3.88;;;;;;;;;;4968830;28;20488;-71
2022/10/16 01:39:48;;;;;;;12.27;3.33;;;;;;;;;;4970569;28;20050;-71
2022/10/16 01:42:17;;;;;;;6.00;3.40;;;;;;;;;;4969501;28;20044;-71
2022/10/16 01:44:44;;;;;;;6.32;3.72;;;;;;;;;;4971011;28;20488;-70
2022/10/16 01:47:10;;;;;;;9.68;3.38;;;;;;;;;;4970061;28;20519;-70
2022/10/16 01:49:38;;;;;;;5.03;2.90;;;;;;;;;;4970471;28;20110;-71
2022/10/16 01:52:09;;;;;;;6.32;2.97;;;;;;;;;;4967669;28;20026;-71
2022/10/16 01:54:37;;;;;;;6.18;2.80;;;;;;;;;;4971576;28;20246;-70
2022/10/16 01:57:05;;;;;;;8.98;3.13;;;;;;;;;;4970639;28;20019;-71
2022/10/16 01:59:33;;;;;;;8.38;3.63;;;;;;;;;;4971415;28;20026;-70
2022/10/16 02:02:01;;;;;;;7.55;3.35;;;;;;;;;;4970630;28;20041;-70
2022/10/16 02:04:47;;;;;;;10.60;3.83;;;;;;;;;;4968394;28;20824;-70
2022/10/16 02:07:14;;;;;;;6.82;4.15;;;;;;;;;;4968339;28;20065;-71
2022/10/16 02:09:40;;;;;;;6.53;3.80;;;;;;;;;;4968500;28;20480;-70
2022/10/16 02:12:16;;;;;;;9.30;3.42;;;;;;;;;;4969905;28;20516;-70
2022/10/16 02:14:42;;;;;;;9.57;3.85;;;;;;;;;;4969787;28;20122;-71
2022/10/16 02:17:12;;;;;;;9.70;4.15;;;;;;;;;;4970334;28;20047;-71
2022/10/16 02:19:38;;;;;;;9.23;4.32;;;;;;;;;;4968037;28;20240;-71
2022/10/16 02:22:06;;;;;;;11.32;4.47;;;;;;;;;;4969920;28;20053;-70
2022/10/16 02:24:34;;;;;;;9.07;4.38;;;;;;;;;;4969796;28;20117;-71
2022/10/16 02:27:11;;;;;;;17.23;4.28;;;;;;;;;;4970528;28;20062;-70
2022/10/16 02:29:44;;;;;;;7.80;4.47;;;;;;;;;;4966881;28;20039;-71
2022/10/16 02:32:10;;;;;;;11.95;4.20;;;;;;;;;;4970747;28;20038;-70
2022/10/16 02:34:37;;;;;;;7.15;4.53;;;;;;;;;;4968727;28;20488;-70
2022/10/16 02:37:04;;;;;;;8.65;4.00;;;;;;;;;;4969747;28;20035;-70
2022/10/16 02:39:31;;;;;;;9.13;4.32;;;;;;;;;;4968268;28;20031;-71
2022/10/16 02:41:57;;;;;;;7.75;4.18;;;;;;;;;;4971832;28;20034;-71
2022/10/16 02:44:23;;;;;;;6.00;4.13;;;;;;;;;;4967758;28;20042;-70
2022/10/16 02:46:49;;;;;;;9.88;4.45;;;;;;;;;;4969926;28;20783;-70
2022/10/16 02:49:15;;;;;;;6.97;4.25;;;;;;;;;;4969717;28;20038;-70
2022/10/16 02:51:41;;;;;;;6.55;4.07;;;;;;;;;;4967466;28;20050;-70
2022/10/16 02:54:07;;;;;;;8.00;4.00;;;;;;;;;;4970302;28;20037;-70
2022/10/16 02:56:33;;;;;;;8.20;3.88;;;;;;;;;;4965890;28;20126;-70
2022/10/16 02:58:59;;;;;;;5.25;3.15;;;;;;;;;;4970433;28;20038;-71
2022/10/16 03:01:25;;;;;;;9.95;4.32;;;;;;;;;;4968401;28;20089;-72
2022/10/16 03:03:51;;;;;;;8.40;3.50;;;;;;;;;;4970296;28;20100;-71
2022/10/16 03:06:17;;;;;;;7.35;3.80;;;;;;;;;;4952580;28;20082;-71
2022/10/16 03:08:43;;;;;;;7.60;3.42;;;;;;;;;;4970425;28;20041;-71
2022/10/16 03:11:09;;;;;;;8.70;3.92;;;;;;;;;;4966454;28;20411;-72
2022/10/16 03:13:35;;;;;;;11.80;3.88;;;;;;;;;;4965753;28;20050;-72
2022/10/16 03:16:01;;;;;;;7.10;3.85;;;;;;;;;;4966657;28;20052;-72
2022/10/16 03:18:27;;;;;;;5.78;3.53;;;;;;;;;;4968637;28;20060;-72
2022/10/16 03:20:53;;;;;;;7.97;3.80;;;;;;;;;;4967462;28;20477;-72
2022/10/16 03:23:19;;;;;;;11.50;5.00;;;;;;;;;;4967128;28;20089;-71
2022/10/16 03:25:45;;;;;;;6.90;4.00;;;;;;;;;;4981945;28;20086;-72
2022/10/16 03:28:11;;;;;;;10.38;4.50;;;;;;;;;;4979486;28;20109;-71
2022/10/16 03:30:39;;;;;;;8.73;3.92;;;;;;;;;;4967610;28;20027;-71
2022/10/16 03:33:05;;;;;;;6.75;3.38;;;;;;;;;;4969384;28;20077;-72
2022/10/16 03:35:31;;;;;;;7.35;3.95;;;;;;;;;;4967476;28;20029;-72
2022/10/16 03:37:57;;;;;;;7.75;3.60;;;;;;;;;;4974888;28;20117;-72
2022/10/16 03:40:23;;;;;;;5.45;3.30;;;;;;;;;;4969391;28;20110;-72
2022/10/16 03:42:49;;;;;;;8.15;3.65;;;;;;;;;;4967224;28;20043;-72
2022/10/16 03:45:15;;;;;;;9.02;3.47;;;;;;;;;;4967802;28;20121;-72
2022/10/16 03:47:41;;;;;;;7.28;3.85;;;;;;;;;;4968206;28;20448;-73
2022/10/16 03:50:08;;;;;;;10.25;4.05;;;;;;;;;;4967413;28;20058;-71
2022/10/16 03:52:34;;;;;;;6.10;3.50;;;;;;;;;;4965794;28;20043;-71
2022/10/16 03:55:00;;;;;;;5.18;3.25;;;;;;;;;;4966149;28;20027;-72
2022/10/16 03:57:26;;;;;;;6.38;3.17;;;;;;;;;;4967666;28;20102;-71
2022/10/16 03:59:52;;;;;;;7.20;3.50;;;;;;;;;;4969440;28;20117;-71
2022/10/16 04:02:18;;;;;;;6.60;3.30;;;;;;;;;;4965478;28;20544;-72
2022/10/16 04:04:44;;;;;;;14.55;4.45;;;;;;;;;;4980285;28;20045;-72
2022/10/16 04:07:10;;;;;;;11.68;3.78;;;;;;;;;;4979980;28;20076;-71
2022/10/16 04:09:36;;;;;;;6.18;4.10;;;;;;;;;;4966640;28;20429;-72
2022/10/16 04:12:02;;;;;;;9.35;3.42;;;;;;;;;;4965687;28;20046;-73
2022/10/16 04:14:28;;;;;;;6.15;3.50;;;;;;;;;;4967868;28;20026;-72
2022/10/16 04:16:54;;;;;;;4.97;2.80;;;;;;;;;;4966111;28;20500;-72
2022/10/16 04:19:21;;;;;;;8.73;3.28;;;;;;;;;;4966595;28;20090;-72
2022/10/16 04:21:46;;;;;;;8.82;3.38;;;;;;;;;;4968974;28;20031;-73
2022/10/16 04:24:12;;;;;;;6.75;3.15;;;;;;;;;;4965340;28;20090;-72
2022/10/16 04:26:39;;;;;;;7.50;3.00;;;;;;;;;;4968045;28;20046;-72
2022/10/16 04:29:05;;;;;;;8.32;3.47;;;;;;;;;;4980462;28;20034;-72
2022/10/16 04:31:31;;;;;;;9.05;3.20;;;;;;;;;;4966394;28;20026;-71
2022/10/16 04:33:57;;;;;;;6.13;3.30;;;;;;;;;;4965849;28;20031;-71
2022/10/16 04:36:24;;;;;;;8.70;3.50;;;;;;;;;;4964544;28;21735;-72
2022/10/16 04:38:50;;;;;;;7.75;3.50;;;;;;;;;;4966909;28;20031;-72
2022/10/16 04:41:16;;;;;;;8.05;3.28;;;;;;;;;;4968294;28;20084;-72
2022/10/16 04:43:42;;;;;;;8.48;3.67;;;;;;;;;;4967834;28;20507;-71
2022/10/16 04:46:09;;;;;;;6.80;3.25;;;;;;;;;;4967644;28;20039;-71
2022/10/16 04:48:35;;;;;;;8.88;3.90;;;;;;;;;;4964744;28;20489;-72
2022/10/16 04:51:01;;;;;;;5.85;3.60;;;;;;;;;;4967507;28;20042;-71
2022/10/16 04:53:27;;;;;;;6.45;3.50;;;;;;;;;;4965988;28;20062;-71
2022/10/16 04:55:54;;;;;;;8.13;4.15;;;;;;;;;;4968077;28;20596;-71
2022/10/16 04:58:20;;;;;;;9.40;4.07;;;;;;;;;;4966446;28;20019;-72
2022/10/16 05:00:46;;;;;;;7.10;3.35;;;;;;;;;;4968042;28;20090;-71
2022/10/16 05:03:13;;;;;;;9.27;3.85;;;;;;;;;;4964305;28;20438;-72
2022/10/16 05:05:43;;;;;;;7.88;4.05;;;;;;;;;;4981222;28;20059;-72
2022/10/16 05:08:09;;;;;;;7.87;4.47;;;;;;;;;;4966865;28;20054;-72
2022/10/16 05:10:35;;;;;;;11.55;4.00;;;;;;;;;;4960810;28;20038;-73
2022/10/16 05:13:01;;;;;;;8.15;4.00;;;;;;;;;;4964945;28;20081;-71
2022/10/16 05:15:28;;;;;;;11.27;4.13;;;;;;;;;;4966739;28;20031;-71
2022/10/16 05:17:54;;;;;;;8.27;3.75;;;;;;;;;;4966234;28;20050;-72
2022/10/16 05:20:20;;;;;;;12.73;3.80;;;;;;;;;;4965832;28;20524;-72
2022/10/16 05:22:46;;;;;;;8.13;3.95;;;;;;;;;;4969309;28;20035;-72
2022/10/16 05:25:12;;;;;;;6.65;3.60;;;;;;;;;;4968206;28;20637;-72
2022/10/16 05:27:38;;;;;;;6.50;3.40;;;;;;;;;;4962535;28;20045;-72
2022/10/16 05:30:04;;;;;;;6.75;3.85;;;;;;;;;;4966762;28;20035;-72
2022/10/16 05:32:31;;;;;;;10.52;3.72;;;;;;;;;;4964863;28;20522;-72
2022/10/16 05:34:59;;;;;;;12.32;3.95;;;;;;;;;;4966266;28;20807;-72
2022/10/16 05:37:25;;;;;;;10.02;3.92;;;;;;;;;;4965792;28;20085;-72
2022/10/16 05:39:51;;;;;;;10.88;3.45;;;;;;;;;;4949854;28;20430;-72
2022/10/16 05:42:18;;;;;;;9.60;4.00;;;;;;;;;;4964509;28;20037;-72
2022/10/16 05:44:44;;;;;;;5.55;3.78;;;;;;;;;;4964101;28;20023;-72
2022/10/16 05:47:10;;;;;;;12.63;4.88;;;;;;;;;;4963133;28;20034;-72
2022/10/16 05:49:36;;;;;;;9.50;4.22;;;;;;;;;;4963463;28;20035;-72
2022/10/16 05:52:02;;;;;;;7.97;4.35;;;;;;;;;;4982059;28;20799;-72
2022/10/16 05:54:28;;;;;;;10.50;4.20;;;;;;;;;;4963648;28;20031;-72
2022/10/16 05:56:54;;;;;;;8.65;4.30;;;;;;;;;;4967551;28;20400;-72
2022/10/16 05:59:20;;;;;;;8.00;5.00;;;;;;;;;;4966382;28;20123;-72
2022/10/16 06:01:46;;;;;;;8.55;4.22;;;;;;;;;;4966837;28;20031;-71
2022/10/16 06:04:12;;;;;;;7.68;4.68;;;;;;;;;;4965141;28;20035;-72
2022/10/16 06:06:38;;;;;;;9.00;4.85;;;;;;;;;;4980503;28;20157;-73
2022/10/16 06:09:04;;;;;;;10.65;5.00;;;;;;;;;;4968935;28;20105;-72
2022/10/16 06:11:32;;;;;;;13.07;5.22;;;;;;;;;;4966280;28;20039;-72
2022/10/16 06:14:00;;;;;;;10.45;5.20;;;;;;;;;;4964412;28;20031;-72
2022/10/16 06:16:26;;;;;;;11.32;5.35;;;;;;;;;;4965065;28;20026;-72
2022/10/16 06:18:53;;;;;;;11.85;5.55;;;;;;;;;;4964035;28;20082;-70
2022/10/16 06:21:21;;;;;;;11.13;6.10;;;;;;;;;;4968761;28;20050;-71
2022/10/16 06:23:47;;;;;;;14.88;6.78;;;;;;;;;;4969883;28;20030;-70
2022/10/16 06:26:14;;;;;;;14.45;5.82;;;;;;;;;;4968510;28;20090;-70
2022/10/16 06:28:40;;;;;;;14.45;5.95;;;;;;;;;;4963834;28;20089;-70
2022/10/16 06:31:07;;;;;;;10.48;5.97;;;;;;;;;;4972501;28;20046;-70
2022/10/16 06:33:33;;;;;;;14.40;6.25;;;;;;;;;;4978987;28;20039;-71
2022/10/16 06:36:10;;;;;;;9.68;5.68;;;;;;;;;;4969522;28;20035;-70
2022/10/16 06:38:36;;;;;;;9.80;6.18;;;;;;;;;;4968250;28;20153;-70
2022/10/16 06:41:02;;;;;;;11.65;6.25;;;;;;;;;;4978761;28;20038;-71
2022/10/16 06:43:32;;;;;;;12.13;6.70;;;;;;;;;;4970828;28;20448;-70
2022/10/16 06:45:58;;;;;;;11.40;6.55;;;;;;;;;;4969164;28;20039;-71
2022/10/16 06:48:25;;;;;;;13.93;6.47;;;;;;;;;;4968696;28;20034;-70
2022/10/16 06:50:57;;;;;;;11.02;5.85;;;;;;;;;;4965923;28;20057;-71
2022/10/16 06:53:24;;;;;;;14.02;7.03;;;;;;;;;;4968474;28;20102;-71
2022/10/16 06:55:50;;;;;;;12.25;5.85;;;;;;;;;;4970244;28;20019;-70
2022/10/16 06:58:16;;;;;;;13.63;5.10;;;;;;;;;;4970338;28;20027;-70
2022/10/16 07:00:42;;;;;;;10.35;4.90;;;;;;;;;;4963887;28;20031;-70
2022/10/16 07:03:08;;;;;;;9.43;4.30;;;;;;;;;;4971199;28;20462;-70
2022/10/16 07:05:38;;;;;;;11.35;4.30;;;;;;;;;;4965424;28;20053;-70
2022/10/16 07:08:05;;;;;;;10.55;3.92;;;;;;;;;;4967737;28;20074;-70
2022/10/16 07:10:31;;;;;;;8.88;3.67;;;;;;;;;;4966954;28;20060;-71
2022/10/16 07:12:57;;;;;;;11.27;3.05;;;;;;;;;;4967548;28;20043;-70
2022/10/16 07:15:24;;;;;;;8.75;2.60;;;;;;;;;;4979784;28;20101;-70
2022/10/16 07:17:50;;;;;;;12.25;2.83;;;;;;;;;;4968250;28;20134;-70
2022/10/16 07:20:16;;;;;;;10.98;2.60;;;;;;;;;;4967214;28;20106;-70
2022/10/16 07:22:42;;;;;;;6.97;3.03;;;;;;;;;;4968614;28;20049;-70
2022/10/16 07:25:08;;;;;;;9.90;2.60;;;;;;;;;;4964607;28;20031;-70
2022/10/16 07:27:34;;;;;;;9.40;2.55;;;;;;;;;;4962798;28;20039;-72
2022/10/16 07:30:00;;;;;;;6.00;2.97;;;;;;;;;;4966451;28;20114;-71
2022/10/16 07:32:26;;;;;;;6.15;2.13;;;;;;;;;;4962760;28;20034;-72
2022/10/16 07:34:53;;;;;;;7.28;2.95;;;;;;;;;;4965680;28;20031;-72
2022/10/16 07:37:19;;;;;;;7.13;2.53;;;;;;;;;;4967295;28;20031;-71
2022/10/16 07:39:45;;;;;;;11.75;2.78;;;;;;;;;;4963182;28;20102;-72
2022/10/16 07:42:11;;;;;;;8.63;2.50;;;;;;;;;;4964499;28;20138;-72
2022/10/16 07:44:37;;;;;;;8.02;2.63;;;;;;;;;;4960871;28;20280;-71
2022/10/16 07:47:03;;;;;;;6.22;2.08;;;;;;;;;;4964021;28;20094;-71
2022/10/16 07:49:29;;;;;;;7.97;2.28;;;;;;;;;;4964625;28;20041;-72
2022/10/16 07:51:55;;;;;;;7.75;2.35;;;;;;;;;;4961815;28;20103;-73
2022/10/16 07:54:21;;;;;;;8.50;2.80;;;;;;;;;;4966604;28;20480;-72
2022/10/16 07:56:47;;;;;;;7.95;3.15;;;;;;;;;;4965579;28;20101;-72
2022/10/16 07:59:13;;;;;;;13.80;3.63;;;;;;;;;;4962064;28;20027;-71
2022/10/16 08:01:39;;;;;;;7.90;2.90;;;;;;;;;;4965544;28;20042;-72
2022/10/16 08:04:06;;;;;;;5.63;3.58;;;;;;;;;;4965854;28;20031;-73
2022/10/16 08:06:35;;;;;;;13.48;3.55;;;;;;;;;;4964947;28;20199;-72
2022/10/16 08:09:01;;;;;;;10.93;3.85;;;;;;;;;;4965268;28;20511;-72
2022/10/16 08:11:27;;;;;;;8.27;3.20;;;;;;;;;;4966009;28;20042;-72
2022/10/16 08:13:53;;;;;;;9.07;4.10;;;;;;;;;;4966226;28;20023;-73
2022/10/16 08:16:19;;;;;;;6.53;3.70;;;;;;;;;;4966361;28;20118;-71
2022/10/16 08:18:45;;;;;;;7.80;3.17;;;;;;;;;;4964202;28;20042;-72
2022/10/16 08:21:16;;;;;;;12.75;5.07;;;;;;;;;;4977931;28;20086;-72
2022/10/16 08:23:43;;;;;;;10.15;3.88;;;;;;;;;;4963835;28;20456;-72
2022/10/16 08:26:09;;;;;;;9.48;3.70;;;;;;;;;;4966546;28;20022;-72
2022/10/16 08:28:35;;;;;;;10.30;3.63;;;;;;;;;;4960336;28;20031;-71
2022/10/16 08:31:12;;;;;;;8.05;3.58;;;;;;;;;;4966175;28;20102;-72
2022/10/16 08:33:39;;;;;;;13.23;3.50;;;;;;;;;;4966240;28;20654;-71
2022/10/16 08:36:05;;;;;;;12.98;3.83;;;;;;;;;;4967228;28;20029;-71
2022/10/16 08:38:32;;;;;;;10.63;3.10;;;;;;;;;;4963943;28;20023;-70
2022/10/16 08:41:11;;;;;;;13.23;3.67;;;;;;;;;;4966000;28;20053;-71
2022/10/16 08:43:49;;;;;;;9.65;3.35;;;;;;;;;;4962136;28;20354;-72
2022/10/16 08:46:18;;;;;;;10.93;3.22;;;;;;;;;;4961917;28;20457;-71
2022/10/16 08:48:49;;;;;;;11.98;2.90;;;;;;;;;;4981407;28;20023;-72
2022/10/16 08:51:20;;;;;;;10.10;2.67;;;;;;;;;;4962475;28;20027;-72
2022/10/16 08:54:05;;;;;;;11.18;2.53;;;;;;;;;;4961886;28;20445;-71
2022/10/16 08:56:33;;;;;;;10.18;2.50;;;;;;;;;;4963459;28;20042;-72
2022/10/16 08:58:59;;;;;;;12.68;2.63;;;;;;;;;;4961961;28;20125;-72
2022/10/16 09:01:28;;;;;;;9.35;2.67;;;;;;;;;;4961473;28;20053;-72
2022/10/16 09:03:57;;;;;;;9.63;2.60;;;;;;;;;;4961835;28;20425;-72
2022/10/16 09:06:35;;;;;;;10.07;2.67;;;;;;;;;;4963673;28;20039;-72
2022/10/16 09:09:07;;;;;;;9.48;2.63;;;;;;;;;;4962184;28;20077;-73
2022/10/16 09:11:42;;;;;;;12.32;3.42;;;;;;;;;;4967589;28;20037;-72
2022/10/16 09:14:20;;;;;;;11.88;2.95;;;;;;;;;;4977394;28;20420;-72
2022/10/16 09:16:53;;;;;;;16.02;3.05;;;;;;;;;;4964749;28;20035;-71
2022/10/16 09:19:29;;;;;;;15.18;2.95;;;;;;;;;;4964128;28;20102;-72
2022/10/16 09:21:56;;;;;;;26.27;4.30;;;;;;;;;;4962418;28;20216;-72
2022/10/16 09:24:24;;;;;;;12.43;2.85;;;;;;;;;;4961837;28;20071;-72
2022/10/16 09:26:50;;;;;;;15.23;2.55;;;;;;;;;;4967040;28;20039;-72
2022/10/16 09:29:19;;;;;;;17.95;3.75;;;;;;;;;;4962959;28;21171;-71
2022/10/16 09:31:46;;;;;;;15.95;3.33;;;;;;;;;;4964719;28;20031;-70
2022/10/16 09:34:18;;;;;;;9.05;2.45;;;;;;;;;;4960489;28;20043;-70
2022/10/16 09:36:45;;;;;;;12.45;3.95;;;;;;;;;;4964682;28;20037;-70
2022/10/16 09:39:12;;;;;;;20.00;3.22;;;;;;;;;;4961876;28;20092;-70
2022/10/16 09:41:39;;;;;;;11.98;2.67;;;;;;;;;;4960655;28;20058;-72
2022/10/16 09:44:14;;;;;;;11.13;2.85;;;;;;;;;;4965763;28;20038;-70
2022/10/16 09:46:41;;;;;;;14.98;3.00;;;;;;;;;;4971802;28;20041;-70
2022/10/16 09:49:26;;;;;;;12.30;3.47;;;;;;;;;;4989718;28;20054;-70
2022/10/16 09:52:03;;;;;;;10.07;2.72;;;;;;;;;;4987578;28;20038;-71
2022/10/16 09:54:29;;;;;;;14.15;2.90;;;;;;;;;;4988756;28;20022;-70
2022/10/16 09:57:04;;;;;;;12.13;2.38;;;;;;;;;;5008223;28;20041;-70
2022/10/16 09:59:31;;;;;;;12.43;2.50;;;;;;;;;;4993867;28;20084;-71
2022/10/16 10:02:03;;;;;;;14.35;3.35;;;;;;;;;;4993839;28;20085;-71
2022/10/16 10:04:38;;;;;;;14.07;2.78;;;;;;;;;;4990686;28;20038;-72
2022/10/16 10:07:04;;;;;;;16.63;2.95;;;;;;;;;;4993860;28;20054;-73
2022/10/16 10:09:39;;;;;;;14.30;2.70;;;;;;;;;;4993483;28;20026;-71
2022/10/16 10:12:06;;;;;;;16.98;3.13;;;;;;;;;;5008190;28;20373;-70
2022/10/16 10:14:38;;;;;;;16.63;2.88;;;;;;;;;;5007981;28;20480;-71
2022/10/16 10:17:07;;;;;;;16.20;3.83;;;;;;;;;;4991168;28;20065;-70
2022/10/16 10:19:42;;;;;;;14.10;2.95;;;;;;;;;;4973925;28;20026;-70
2022/10/16 10:22:23;;;;;;;16.60;3.28;;;;;;;;;;4988557;28;20058;-72
2022/10/16 10:24:49;;;;;;;;;;;;;;;;;;4993035;28;20031;-71
2022/10/16 10:27:17;;;;;;;12.65;2.63;;;;;;;;;;4993161;28;19971;-70
2022/10/16 10:29:55;;;;;;;15.05;2.75;;;;;;;;;;4993174;28;20027;-71
2022/10/16 10:32:30;;;;;;;17.00;3.30;;;;;;;;;;4992569;28;20039;-70
2022/10/16 10:35:11;;;;;;;13.88;3.13;;;;;;;;;;4954361;28;20043;-70
2022/10/16 10:37:44;;;;;;;17.92;3.22;;;;;;;;;;4953858;28;20034;-70
2022/10/16 10:40:13;;;;;;;18.33;3.28;;;;;;;;;;4958335;28;20453;-70
2022/10/16 10:42:45;;;;;;;14.38;2.45;;;;;;;;;;4976921;28;20030;-71
2022/10/16 10:45:23;;;;;;;13.27;2.58;;;;;;;;;;4982775;28;20073;-70
2022/10/16 10:47:58;;;;;;;16.92;3.13;;;;;;;;;;4992322;28;20064;-71
2022/10/16 10:50:35;;;;;;;12.60;2.83;;;;;;;;;;5007203;28;20510;-71
2022/10/16 10:53:10;;;;;;;10.40;2.53;;;;;;;;;;4992142;28;20053;-71
2022/10/16 10:56:00;;;;;;;15.18;3.35;;;;;;;;;;4990729;28;20105;-71
2022/10/16 10:58:44;;;;;;;13.57;2.42;;;;;;;;;;4991838;28;20524;-71
2022/10/16 11:01:14;;;;;;;18.83;3.20;;;;;;;;;;5000032;28;20018;-71
2022/10/16 11:03:59;;;;;;;11.07;2.20;;;;;;;;;;4991803;28;20030;-70
2022/10/16 11:06:27;;;;;;;13.65;2.70;;;;;;;;;;4991548;28;20051;-70
2022/10/16 11:08:53;;;;;;;12.23;2.45;;;;;;;;;;4992038;28;20480;-71
2022/10/16 11:11:19;;;;;;;13.52;2.88;;;;;;;;;;4990039;28;20027;-71
2022/10/16 11:13:55;;;;;;;15.35;3.83;;;;;;;;;;4992170;28;20120;-70
2022/10/16 11:16:29;;;;;;;18.67;2.63;;;;;;;;;;4991489;28;20027;-71
2022/10/16 11:19:14;;;;;;;14.70;2.40;;;;;;;;;;4976569;28;20034;-71
2022/10/16 11:22:00;;;;;;;14.45;2.22;;;;;;;;;;4984160;28;20092;-71
2022/10/16 11:24:38;;;;;;;11.48;1.98;;;;;;;;;;4991543;28;20049;-72
2022/10/16 11:27:07;;;;;;;16.13;2.60;;;;;;;;;;4991917;28;20388;-72
2022/10/16 11:29:35;;;;;;;11.27;2.55;;;;;;;;;;4991960;28;20026;-72
2022/10/16 11:32:05;;;;;;;11.85;2.53;;;;;;;;;;5004650;28;20027;-71
2022/10/16 11:34:48;;;;;;;13.63;2.28;;;;;;;;;;4989103;28;20487;-70
2022/10/16 11:37:33;;;;;;;12.30;2.67;;;;;;;;;;4991983;28;20041;-72
2022/10/16 11:40:33;;;;;;;13.68;2.95;;;;;;;;;;4991945;28;20026;-71
2022/10/16 11:43:02;;;;;;;13.05;2.55;;;;;;;;;;4995909;28;20038;-72
2022/10/16 11:45:28;;;;;;;13.73;2.55;;;;;;;;;;5006659;28;20033;-72
2022/10/16 11:48:02;;;;;;;12.75;1.95;;;;;;;;;;5006730;28;20380;-72
2022/10/16 11:50:32;;;;;;;9.90;1.52;;;;;;;;;;4987816;28;20298;-70
2022/10/16 11:53:09;;;;;;;14.48;2.08;;;;;;;;;;4991371;28;20483;-70
2022/10/16 11:55:37;;;;;;;7.57;2.03;;;;;;;;;;4988407;28;20031;-72
2022/10/16 11:58:23;;;;;;;10.27;2.33;;;;;;;;;;4991705;28;20077;-72
2022/10/16 12:01:01;;;;;;;13.27;2.53;;;;;;;;;;4973918;28;20117;-72
2022/10/16 12:03:30;;;;;;;15.05;2.33;;;;;;;;;;4967122;28;20041;-72
2022/10/16 12:06:05;;;;;;;14.75;2.45;;;;;;;;;;4977281;28;20030;-71
2022/10/16 12:08:34;;;;;;;13.63;2.70;;;;;;;;;;4971194;28;20056;-72
2022/10/16 12:11:07;;;;;;;11.52;2.15;;;;;;;;;;4983392;28;20522;-72
2022/10/16 12:13:35;;;;;;;13.43;2.78;;;;;;;;;;5004557;28;20065;-71
2022/10/16 12:16:20;;;;;;;15.25;2.33;;;;;;;;;;4986008;28;20069;-72
2022/10/16 12:18:47;;;;;;;12.50;2.47;;;;;;;;;;4971417;28;20476;-72
2022/10/16 12:21:15;;;;;;;12.38;2.55;;;;;;;;;;4990111;28;20400;-72
2022/10/16 12:23:47;;;;;;;14.02;2.20;;;;;;;;;;4974821;28;20089;-71
2022/10/16 12:26:23;;;;;;;7.63;1.92;;;;;;;;;;4997571;28;20030;-72
2022/10/16 12:28:51;;;;;;;10.20;2.20;;;;;;;;;;4987100;28;20427;-72
2022/10/16 12:31:17;;;;;;;12.85;2.22;;;;;;;;;;4976836;28;20053;-71
2022/10/16 12:33:52;;;;;;;12.52;2.58;;;;;;;;;;4967784;28;20405;-72
2022/10/16 12:36:28;;;;;;;17.15;2.83;;;;;;;;;;4990014;28;20022;-72
2022/10/16 12:38:54;;;;;;;11.88;1.80;;;;;;;;;;4986174;28;20030;-71
2022/10/16 12:41:28;;;;;;;9.88;2.42;;;;;;;;;;4979120;28;20031;-72
2022/10/16 12:43:54;;;;;;;13.55;2.45;;;;;;;;;;4986336;28;20023;-72
2022/10/16 12:46:33;;;;;;;12.65;2.33;;;;;;;;;;4978693;28;20045;-72
2022/10/16 12:49:22;;;;;;;15.57;2.10;;;;;;;;;;4985151;28;20038;-72
2022/10/16 12:51:48;;;;;;;10.55;2.03;;;;;;;;;;4972277;28;20027;-72
2022/10/16 12:54:28;;;;;;;11.98;1.98;;;;;;;;;;4972630;28;20027;-71
2022/10/16 12:57:13;;;;;;;10.60;2.10;;;;;;;;;;4997507;28;20592;-73
2022/10/16 12:59:57;;;;;;;11.35;2.35;;;;;;;;;;4974998;28;20058;-72
2022/10/16 13:02:23;;;;;;;14.88;2.33;;;;;;;;;;4974794;28;20031;-72
2022/10/16 13:04:55;;;;;;;11.90;2.20;;;;;;;;;;4982450;28;20030;-71
2022/10/16 13:07:29;;;;;;;16.00;2.13;;;;;;;;;;4976200;28;20048;-72
2022/10/16 13:10:11;;;;;;;15.85;2.80;;;;;;;;;;4984323;28;20381;-72
2022/10/16 13:12:46;;;;;;;10.23;1.98;;;;;;;;;;4988942;28;20088;-70
2022/10/16 13:15:27;;;;;;;16.33;2.58;;;;;;;;;;4990922;28;20036;-72
2022/10/16 13:17:58;;;;;;;12.85;2.10;;;;;;;;;;4970385;28;20403;-72
2022/10/16 13:20:31;;;;;;;15.95;2.80;;;;;;;;;;4968280;28;20037;-68
2022/10/16 13:23:06;;;;;;;17.58;2.22;;;;;;;;;;4981733;28;20030;-68
2022/10/16 13:25:43;;;;;;;12.43;2.10;;;;;;;;;;4971523;28;20524;-67
2022/10/16 13:28:11;;;;;;;16.67;2.60;;;;;;;;;;4970877;28;20122;-68
2022/10/16 13:30:40;;;;;;;18.10;3.25;;;;;;;;;;4984982;28;20046;-68
2022/10/16 13:33:17;;;;;;;10.05;2.28;;;;;;;;;;4987613;28;20122;-67
2022/10/16 13:35:50;;;;;;;17.50;2.28;;;;;;;;;;4970036;28;20059;-67
2022/10/16 13:38:19;;;;;;;9.65;2.50;;;;;;;;;;4975023;28;20109;-67
2022/10/16 13:41:00;;;;;;;18.15;2.20;;;;;;;;;;4976597;28;20023;-68
2022/10/16 13:43:26;;;;;;;;;;;;;;;;;;4961490;28;20076;-67
2022/10/16 13:45:57;;;;;;;17.25;3.30;;;;;;;;;;4984098;28;19976;-68
2022/10/16 13:48:23;;;;;;;12.38;2.03;;;;;;;;;;4969024;28;20085;-67
2022/10/16 13:51:08;;;;;;;13.55;2.03;;;;;;;;;;4966145;28;20061;-68
2022/10/16 13:53:35;;;;;;;16.13;2.33;;;;;;;;;;4964347;28;20311;-68
2022/10/16 13:56:06;;;;;;;12.02;2.30;;;;;;;;;;4974793;28;20039;-67
2022/10/16 13:58:32;;;;;;;10.48;2.38;;;;;;;;;;4970490;28;20038;-67
2022/10/16 14:01:02;;;;;;;18.25;2.80;;;;;;;;;;4969924;28;20038;-67
2022/10/16 14:03:30;;;;;;;17.27;2.60;;;;;;;;;;4969563;28;20027;-67
2022/10/16 14:06:01;;;;;;;12.35;3.38;;;;;;;;;;4981503;28;20289;-67
2022/10/16 14:08:28;;;;;;;17.45;2.45;;;;;;;;;;4969692;28;20160;-67
2022/10/16 14:10:55;;;;;;;13.18;2.33;;;;;;;;;;4968191;28;20093;-67
2022/10/16 14:13:42;;;;;;;17.00;2.50;;;;;;;;;;4976519;28;20062;-67
2022/10/16 14:16:09;;;;;;;21.45;3.90;;;;;;;;;;4983448;28;20038;-68
2022/10/16 14:18:38;;;;;;;14.27;2.53;;;;;;;;;;4971954;28;20023;-67
2022/10/16 14:21:05;;;;;;;17.20;2.40;;;;;;;;;;4972085;28;20081;-68
2022/10/16 14:23:41;;;;;;;8.85;2.08;;;;;;;;;;4969965;28;20030;-68
2022/10/16 14:26:10;;;;;;;14.98;2.13;;;;;;;;;;4965201;28;20106;-68
2022/10/16 14:28:37;;;;;;;22.73;2.60;;;;;;;;;;4964078;28;20117;-68
2022/10/16 14:31:15;;;;;;;16.15;2.75;;;;;;;;;;4977620;28;20031;-67
2022/10/16 14:33:41;;;;;;;15.45;2.88;;;;;;;;;;4968400;28;20119;-67
2022/10/16 14:36:10;;;;;;;17.52;3.47;;;;;;;;;;4970242;28;20544;-67
2022/10/16 14:38:38;;;;;;;17.50;2.25;;;;;;;;;;4969659;28;20319;-68
2022/10/16 14:41:04;;;;;;;14.93;2.47;;;;;;;;;;4977859;28;20126;-67
2022/10/16 14:43:30;;;;;;;12.52;2.05;;;;;;;;;;4974608;28;20563;-67
2022/10/16 14:45:57;;;;;;;20.15;2.53;;;;;;;;;;4976196;28;20476;-67
2022/10/16 14:48:24;;;;;;;14.85;2.20;;;;;;;;;;4974495;28;20054;-66